sensor_id;sensor_type;location;lat;lon;timestamp;P1;durP1;ratioP1;P2;durP2;ratioP2
74867;SDS011;63419;42.262;12.210;2023-10-31T00:01:25;16.42;;;2.35;;
74867;SDS011;63419;42.262;12.210;2023-10-31T00:03:50;15.68;;;3.20;;
74867;SDS011;63419;42.262;12.210;2023-10-31T00:06:16;17.42;;;3.28;;
74867;SDS011;63419;42.262;12.210;2023-10-31T00:08:42;24.10;;;4.53;;
74867;SDS011;63419;42.262;12.210;2023-10-31T00:11:07;25.48;;;5.05;;
74867;SDS011;63419;42.262;12.210;2023-10-31T00:13:33;19.02;;;2.67;;
74867;SDS011;63419;42.262;12.210;2023-10-31T00:15:59;20.63;;;4.00;;
74867;SDS011;63419;42.262;12.210;2023-10-31T00:18:25;26.30;;;3.70;;
74867;SDS011;63419;42.262;12.210;2023-10-31T00:20:50;17.27;;;3.50;;
74867;SDS011;63419;42.262;12.210;2023-10-31T00:23:16;14.57;;;2.97;;
74867;SDS011;63419;42.262;12.210;2023-10-31T00:25:42;22.63;;;3.17;;
74867;SDS011;63419;42.262;12.210;2023-10-31T00:28:07;18.35;;;3.53;;
74867;SDS011;63419;42.262;12.210;2023-10-31T00:30:33;20.98;;;3.58;;
74867;SDS011;63419;42.262;12.210;2023-10-31T00:32:59;16.95;;;3.08;;
74867;SDS011;63419;42.262;12.210;2023-10-31T00:35:24;18.77;;;2.95;;
74867;SDS011;63419;42.262;12.210;2023-10-31T00:37:50;17.73;;;3.80;;
74867;SDS011;63419;42.262;12.210;2023-10-31T00:40:15;15.52;;;2.88;;
74867;SDS011;63419;42.262;12.210;2023-10-31T00:42:42;19.17;;;2.65;;
74867;SDS011;63419;42.262;12.210;2023-10-31T00:45:08;17.02;;;3.42;;
74867;SDS011;63419;42.262;12.210;2023-10-31T00:47:34;13.40;;;2.75;;
74867;SDS011;63419;42.262;12.210;2023-10-31T00:50:01;11.40;;;2.22;;
74867;SDS011;63419;42.262;12.210;2023-10-31T00:52:27;14.30;;;2.30;;
74867;SDS011;63419;42.262;12.210;2023-10-31T00:54:52;14.18;;;2.42;;
74867;SDS011;63419;42.262;12.210;2023-10-31T00:57:18;11.32;;;2.50;;
74867;SDS011;63419;42.262;12.210;2023-10-31T00:59:44;14.85;;;2.35;;
74867;SDS011;63419;42.262;12.210;2023-10-31T01:02:09;18.23;;;3.15;;
74867;SDS011;63419;42.262;12.210;2023-10-31T01:04:36;16.02;;;2.38;;
74867;SDS011;63419;42.262;12.210;2023-10-31T01:07:02;12.13;;;2.30;;
74867;SDS011;63419;42.262;12.210;2023-10-31T01:09:28;12.55;;;1.85;;
74867;SDS011;63419;42.262;12.210;2023-10-31T01:11:53;12.70;;;2.10;;
74867;SDS011;63419;42.262;12.210;2023-10-31T01:14:19;9.25;;;1.67;;
74867;SDS011;63419;42.262;12.210;2023-10-31T01:16:45;8.65;;;2.13;;
74867;SDS011;63419;42.262;12.210;2023-10-31T01:19:12;12.25;;;3.17;;
74867;SDS011;63419;42.262;12.210;2023-10-31T01:21:38;14.05;;;2.00;;
74867;SDS011;63419;42.262;12.210;2023-10-31T01:24:03;9.63;;;1.67;;
74867;SDS011;63419;42.262;12.210;2023-10-31T01:26:29;10.70;;;1.95;;
74867;SDS011;63419;42.262;12.210;2023-10-31T01:28:55;7.97;;;1.60;;
74867;SDS011;63419;42.262;12.210;2023-10-31T01:31:21;7.75;;;1.48;;
74867;SDS011;63419;42.262;12.210;2023-10-31T01:33:47;8.68;;;1.65;;
74867;SDS011;63419;42.262;12.210;2023-10-31T01:36:12;5.78;;;1.35;;
74867;SDS011;63419;42.262;12.210;2023-10-31T01:38:39;5.90;;;0.90;;
74867;SDS011;63419;42.262;12.210;2023-10-31T01:41:05;9.75;;;1.10;;
74867;SDS011;63419;42.262;12.210;2023-10-31T01:43:34;9.65;;;1.60;;
74867;SDS011;63419;42.262;12.210;2023-10-31T01:46:01;7.93;;;1.48;;
74867;SDS011;63419;42.262;12.210;2023-10-31T01:48:29;9.20;;;1.88;;
74867;SDS011;63419;42.262;12.210;2023-10-31T01:50:59;11.45;;;1.15;;
74867;SDS011;63419;42.262;12.210;2023-10-31T01:53:29;7.70;;;1.58;;
74867;SDS011;63419;42.262;12.210;2023-10-31T01:55:58;8.43;;;1.10;;
74867;SDS011;63419;42.262;12.210;2023-10-31T01:58:28;9.25;;;1.67;;
74867;SDS011;63419;42.262;12.210;2023-10-31T02:00:59;7.32;;;1.10;;
74867;SDS011;63419;42.262;12.210;2023-10-31T02:03:27;9.75;;;1.27;;
74867;SDS011;63419;42.262;12.210;2023-10-31T02:05:53;4.45;;;0.90;;
74867;SDS011;63419;42.262;12.210;2023-10-31T02:08:19;11.68;;;1.05;;
74867;SDS011;63419;42.262;12.210;2023-10-31T02:10:45;5.38;;;0.47;;
74867;SDS011;63419;42.262;12.210;2023-10-31T02:13:14;5.60;;;1.33;;
74867;SDS011;63419;42.262;12.210;2023-10-31T02:15:41;17.15;;;1.55;;
74867;SDS011;63419;42.262;12.210;2023-10-31T02:18:07;9.98;;;1.80;;
74867;SDS011;63419;42.262;12.210;2023-10-31T02:20:35;6.15;;;1.08;;
74867;SDS011;63419;42.262;12.210;2023-10-31T02:23:04;9.18;;;0.82;;
74867;SDS011;63419;42.262;12.210;2023-10-31T02:25:30;6.75;;;0.77;;
74867;SDS011;63419;42.262;12.210;2023-10-31T02:27:56;11.48;;;1.13;;
74867;SDS011;63419;42.262;12.210;2023-10-31T02:30:22;10.50;;;0.88;;
74867;SDS011;63419;42.262;12.210;2023-10-31T02:32:48;7.63;;;1.00;;
74867;SDS011;63419;42.262;12.210;2023-10-31T02:35:15;8.35;;;1.05;;
74867;SDS011;63419;42.262;12.210;2023-10-31T02:37:41;7.57;;;0.73;;
74867;SDS011;63419;42.262;12.210;2023-10-31T02:40:07;5.78;;;0.95;;
74867;SDS011;63419;42.262;12.210;2023-10-31T02:42:33;6.07;;;0.85;;
74867;SDS011;63419;42.262;12.210;2023-10-31T02:44:59;6.97;;;0.93;;
74867;SDS011;63419;42.262;12.210;2023-10-31T02:47:25;4.88;;;1.00;;
74867;SDS011;63419;42.262;12.210;2023-10-31T02:49:51;4.90;;;0.80;;
74867;SDS011;63419;42.262;12.210;2023-10-31T02:52:16;8.32;;;1.13;;
74867;SDS011;63419;42.262;12.210;2023-10-31T02:54:42;7.03;;;0.90;;
74867;SDS011;63419;42.262;12.210;2023-10-31T02:57:09;8.30;;;1.10;;
74867;SDS011;63419;42.262;12.210;2023-10-31T02:59:35;10.80;;;0.90;;
74867;SDS011;63419;42.262;12.210;2023-10-31T03:02:00;5.63;;;1.20;;
74867;SDS011;63419;42.262;12.210;2023-10-31T03:04:26;6.75;;;0.90;;
74867;SDS011;63419;42.262;12.210;2023-10-31T03:06:52;6.38;;;1.10;;
74867;SDS011;63419;42.262;12.210;2023-10-31T03:09:17;5.82;;;0.93;;
74867;SDS011;63419;42.262;12.210;2023-10-31T03:11:43;7.07;;;0.90;;
74867;SDS011;63419;42.262;12.210;2023-10-31T03:14:09;7.63;;;1.85;;
74867;SDS011;63419;42.262;12.210;2023-10-31T03:16:35;6.90;;;1.20;;
74867;SDS011;63419;42.262;12.210;2023-10-31T03:19:01;6.47;;;1.20;;
74867;SDS011;63419;42.262;12.210;2023-10-31T03:21:26;7.72;;;1.20;;
74867;SDS011;63419;42.262;12.210;2023-10-31T03:23:52;11.02;;;1.17;;
74867;SDS011;63419;42.262;12.210;2023-10-31T03:26:20;3.67;;;0.63;;
74867;SDS011;63419;42.262;12.210;2023-10-31T03:28:46;7.50;;;1.15;;
74867;SDS011;63419;42.262;12.210;2023-10-31T03:31:12;11.50;;;1.10;;
74867;SDS011;63419;42.262;12.210;2023-10-31T03:33:39;3.05;;;0.93;;
74867;SDS011;63419;42.262;12.210;2023-10-31T03:36:05;14.60;;;1.98;;
74867;SDS011;63419;42.262;12.210;2023-10-31T03:38:32;5.43;;;0.68;;
74867;SDS011;63419;42.262;12.210;2023-10-31T03:40:57;11.73;;;1.25;;
74867;SDS011;63419;42.262;12.210;2023-10-31T03:43:23;5.30;;;1.02;;
74867;SDS011;63419;42.262;12.210;2023-10-31T03:45:49;12.77;;;1.38;;
74867;SDS011;63419;42.262;12.210;2023-10-31T03:48:16;9.90;;;1.70;;
74867;SDS011;63419;42.262;12.210;2023-10-31T03:50:42;6.38;;;0.90;;
74867;SDS011;63419;42.262;12.210;2023-10-31T03:53:08;8.35;;;1.02;;
74867;SDS011;63419;42.262;12.210;2023-10-31T03:55:34;14.38;;;1.75;;
74867;SDS011;63419;42.262;12.210;2023-10-31T03:58:00;9.05;;;1.80;;
74867;SDS011;63419;42.262;12.210;2023-10-31T04:00:25;10.57;;;1.60;;
74867;SDS011;63419;42.262;12.210;2023-10-31T04:02:51;12.50;;;1.80;;
74867;SDS011;63419;42.262;12.210;2023-10-31T04:05:17;8.60;;;1.45;;
74867;SDS011;63419;42.262;12.210;2023-10-31T04:07:43;14.52;;;1.65;;
74867;SDS011;63419;42.262;12.210;2023-10-31T04:12:36;9.23;;;1.50;;
74867;SDS011;63419;42.262;12.210;2023-10-31T04:15:02;9.25;;;1.15;;
74867;SDS011;63419;42.262;12.210;2023-10-31T04:17:29;7.43;;;1.20;;
74867;SDS011;63419;42.262;12.210;2023-10-31T04:19:55;11.85;;;2.00;;
74867;SDS011;63419;42.262;12.210;2023-10-31T04:22:21;14.48;;;2.22;;
74867;SDS011;63419;42.262;12.210;2023-10-31T04:24:47;14.15;;;1.92;;
74867;SDS011;63419;42.262;12.210;2023-10-31T04:27:14;11.35;;;1.65;;
74867;SDS011;63419;42.262;12.210;2023-10-31T04:29:40;17.73;;;2.28;;
74867;SDS011;63419;42.262;12.210;2023-10-31T04:32:05;14.10;;;2.67;;
74867;SDS011;63419;42.262;12.210;2023-10-31T04:34:31;13.43;;;1.60;;
74867;SDS011;63419;42.262;12.210;2023-10-31T04:36:57;9.07;;;1.08;;
74867;SDS011;63419;42.262;12.210;2023-10-31T04:39:23;15.40;;;1.95;;
74867;SDS011;63419;42.262;12.210;2023-10-31T04:41:49;13.20;;;2.42;;
74867;SDS011;63419;42.262;12.210;2023-10-31T04:44:14;10.88;;;1.75;;
74867;SDS011;63419;42.262;12.210;2023-10-31T04:46:42;14.93;;;1.80;;
74867;SDS011;63419;42.262;12.210;2023-10-31T04:49:08;12.57;;;2.08;;
74867;SDS011;63419;42.262;12.210;2023-10-31T04:51:37;12.15;;;2.10;;
74867;SDS011;63419;42.262;12.210;2023-10-31T04:54:03;11.13;;;2.05;;
74867;SDS011;63419;42.262;12.210;2023-10-31T04:56:29;11.30;;;2.20;;
74867;SDS011;63419;42.262;12.210;2023-10-31T04:58:55;10.52;;;2.30;;
74867;SDS011;63419;42.262;12.210;2023-10-31T05:01:21;8.77;;;1.52;;
74867;SDS011;63419;42.262;12.210;2023-10-31T05:03:47;11.52;;;1.92;;
74867;SDS011;63419;42.262;12.210;2023-10-31T05:06:12;11.43;;;2.03;;
74867;SDS011;63419;42.262;12.210;2023-10-31T05:08:38;9.45;;;1.92;;
74867;SDS011;63419;42.262;12.210;2023-10-31T05:11:04;8.20;;;1.60;;
74867;SDS011;63419;42.262;12.210;2023-10-31T05:13:29;10.75;;;1.33;;
74867;SDS011;63419;42.262;12.210;2023-10-31T05:15:55;9.85;;;1.60;;
74867;SDS011;63419;42.262;12.210;2023-10-31T05:18:21;10.70;;;1.33;;
74867;SDS011;63419;42.262;12.210;2023-10-31T05:20:47;9.60;;;1.30;;
74867;SDS011;63419;42.262;12.210;2023-10-31T05:23:13;11.82;;;1.73;;
74867;SDS011;63419;42.262;12.210;2023-10-31T05:25:40;10.60;;;1.25;;
74867;SDS011;63419;42.262;12.210;2023-10-31T05:28:06;9.07;;;1.60;;
74867;SDS011;63419;42.262;12.210;2023-10-31T05:30:32;9.07;;;1.33;;
74867;SDS011;63419;42.262;12.210;2023-10-31T05:32:58;11.02;;;1.75;;
74867;SDS011;63419;42.262;12.210;2023-10-31T05:35:23;10.48;;;1.60;;
74867;SDS011;63419;42.262;12.210;2023-10-31T05:37:50;12.07;;;2.10;;
74867;SDS011;63419;42.262;12.210;2023-10-31T05:40:15;12.85;;;1.90;;
74867;SDS011;63419;42.262;12.210;2023-10-31T05:42:42;12.02;;;1.85;;
74867;SDS011;63419;42.262;12.210;2023-10-31T05:45:07;10.02;;;2.03;;
74867;SDS011;63419;42.262;12.210;2023-10-31T05:47:33;11.02;;;1.90;;
74867;SDS011;63419;42.262;12.210;2023-10-31T05:49:59;12.55;;;1.48;;
74867;SDS011;63419;42.262;12.210;2023-10-31T05:52:28;11.35;;;1.90;;
74867;SDS011;63419;42.262;12.210;2023-10-31T05:54:57;13.55;;;2.80;;
74867;SDS011;63419;42.262;12.210;2023-10-31T05:57:23;12.25;;;2.10;;
74867;SDS011;63419;42.262;12.210;2023-10-31T05:59:49;12.57;;;1.80;;
74867;SDS011;63419;42.262;12.210;2023-10-31T06:02:15;9.23;;;1.52;;
74867;SDS011;63419;42.262;12.210;2023-10-31T06:04:40;9.40;;;1.70;;
74867;SDS011;63419;42.262;12.210;2023-10-31T06:07:06;12.63;;;1.92;;
74867;SDS011;63419;42.262;12.210;2023-10-31T06:09:32;10.30;;;1.83;;
74867;SDS011;63419;42.262;12.210;2023-10-31T06:12:01;11.13;;;2.05;;
74867;SDS011;63419;42.262;12.210;2023-10-31T06:14:27;9.05;;;1.25;;
74867;SDS011;63419;42.262;12.210;2023-10-31T06:16:53;11.00;;;1.98;;
74867;SDS011;63419;42.262;12.210;2023-10-31T06:19:20;10.50;;;1.90;;
74867;SDS011;63419;42.262;12.210;2023-10-31T06:21:45;12.85;;;1.50;;
74867;SDS011;63419;42.262;12.210;2023-10-31T06:24:11;11.82;;;1.60;;
74867;SDS011;63419;42.262;12.210;2023-10-31T06:26:38;14.85;;;2.20;;
74867;SDS011;63419;42.262;12.210;2023-10-31T06:29:05;14.63;;;2.10;;
74867;SDS011;63419;42.262;12.210;2023-10-31T06:31:30;11.05;;;1.75;;
74867;SDS011;63419;42.262;12.210;2023-10-31T06:33:57;13.93;;;1.70;;
74867;SDS011;63419;42.262;12.210;2023-10-31T06:36:23;10.75;;;1.83;;
74867;SDS011;63419;42.262;12.210;2023-10-31T06:38:48;11.40;;;1.55;;
74867;SDS011;63419;42.262;12.210;2023-10-31T06:41:14;16.67;;;2.08;;
74867;SDS011;63419;42.262;12.210;2023-10-31T06:43:40;14.43;;;2.20;;
74867;SDS011;63419;42.262;12.210;2023-10-31T06:46:06;12.18;;;1.80;;
74867;SDS011;63419;42.262;12.210;2023-10-31T06:48:33;17.05;;;2.33;;
74867;SDS011;63419;42.262;12.210;2023-10-31T06:50:59;16.73;;;2.70;;
74867;SDS011;63419;42.262;12.210;2023-10-31T06:53:24;10.90;;;1.73;;
74867;SDS011;63419;42.262;12.210;2023-10-31T06:55:50;10.02;;;1.67;;
74867;SDS011;63419;42.262;12.210;2023-10-31T06:58:16;15.18;;;1.95;;
74867;SDS011;63419;42.262;12.210;2023-10-31T07:00:41;9.82;;;1.42;;
74867;SDS011;63419;42.262;12.210;2023-10-31T07:03:07;14.00;;;2.13;;
74867;SDS011;63419;42.262;12.210;2023-10-31T07:05:37;11.82;;;1.58;;
74867;SDS011;63419;42.262;12.210;2023-10-31T07:08:03;11.15;;;1.77;;
74867;SDS011;63419;42.262;12.210;2023-10-31T07:10:29;12.90;;;1.48;;
74867;SDS011;63419;42.262;12.210;2023-10-31T07:12:55;11.82;;;1.95;;
74867;SDS011;63419;42.262;12.210;2023-10-31T07:15:21;14.98;;;1.10;;
74867;SDS011;63419;42.262;12.210;2023-10-31T07:17:48;15.00;;;1.27;;
74867;SDS011;63419;42.262;12.210;2023-10-31T07:20:14;11.70;;;1.60;;
74867;SDS011;63419;42.262;12.210;2023-10-31T07:22:40;12.25;;;1.13;;
74867;SDS011;63419;42.262;12.210;2023-10-31T07:25:06;9.43;;;1.00;;
74867;SDS011;63419;42.262;12.210;2023-10-31T07:27:32;8.10;;;1.38;;
74867;SDS011;63419;42.262;12.210;2023-10-31T07:32:25;10.65;;;1.55;;
74867;SDS011;63419;42.262;12.210;2023-10-31T07:34:50;9.27;;;1.33;;
74867;SDS011;63419;42.262;12.210;2023-10-31T07:37:17;10.20;;;1.40;;
74867;SDS011;63419;42.262;12.210;2023-10-31T07:39:43;11.52;;;1.35;;
74867;SDS011;63419;42.262;12.210;2023-10-31T07:42:08;10.07;;;1.33;;
74867;SDS011;63419;42.262;12.210;2023-10-31T07:44:34;7.68;;;1.20;;
74867;SDS011;63419;42.262;12.210;2023-10-31T07:47:00;12.15;;;1.65;;
74867;SDS011;63419;42.262;12.210;2023-10-31T07:49:26;9.55;;;1.80;;
74867;SDS011;63419;42.262;12.210;2023-10-31T07:51:52;10.82;;;1.52;;
74867;SDS011;63419;42.262;12.210;2023-10-31T07:54:18;12.50;;;1.13;;
74867;SDS011;63419;42.262;12.210;2023-10-31T07:56:44;9.02;;;1.27;;
74867;SDS011;63419;42.262;12.210;2023-10-31T07:59:11;11.45;;;1.40;;
74867;SDS011;63419;42.262;12.210;2023-10-31T08:01:37;12.10;;;1.50;;
74867;SDS011;63419;42.262;12.210;2023-10-31T08:04:03;10.20;;;1.20;;
74867;SDS011;63419;42.262;12.210;2023-10-31T08:06:28;12.35;;;1.20;;
74867;SDS011;63419;42.262;12.210;2023-10-31T08:08:54;10.25;;;1.23;;
74867;SDS011;63419;42.262;12.210;2023-10-31T08:11:20;13.27;;;1.95;;
74867;SDS011;63419;42.262;12.210;2023-10-31T08:13:46;8.90;;;1.60;;
74867;SDS011;63419;42.262;12.210;2023-10-31T08:16:16;10.07;;;1.75;;
74867;SDS011;63419;42.262;12.210;2023-10-31T08:18:46;10.68;;;1.77;;
74867;SDS011;63419;42.262;12.210;2023-10-31T08:21:12;10.10;;;1.45;;
74867;SDS011;63419;42.262;12.210;2023-10-31T08:23:37;13.10;;;1.42;;
74867;SDS011;63419;42.262;12.210;2023-10-31T08:26:03;12.05;;;1.98;;
74867;SDS011;63419;42.262;12.210;2023-10-31T08:28:29;11.60;;;2.10;;
74867;SDS011;63419;42.262;12.210;2023-10-31T08:30:56;9.10;;;1.70;;
74867;SDS011;63419;42.262;12.210;2023-10-31T08:33:22;8.13;;;1.40;;
74867;SDS011;63419;42.262;12.210;2023-10-31T08:35:48;13.00;;;1.60;;
74867;SDS011;63419;42.262;12.210;2023-10-31T08:38:14;10.38;;;2.22;;
74867;SDS011;63419;42.262;12.210;2023-10-31T08:40:40;9.15;;;1.23;;
74867;SDS011;63419;42.262;12.210;2023-10-31T08:43:06;7.68;;;0.82;;
74867;SDS011;63419;42.262;12.210;2023-10-31T08:45:32;14.38;;;2.15;;
74867;SDS011;63419;42.262;12.210;2023-10-31T08:47:59;10.63;;;1.70;;
74867;SDS011;63419;42.262;12.210;2023-10-31T08:50:25;9.13;;;1.30;;
74867;SDS011;63419;42.262;12.210;2023-10-31T08:52:50;10.63;;;1.27;;
74867;SDS011;63419;42.262;12.210;2023-10-31T08:55:16;9.98;;;1.42;;
74867;SDS011;63419;42.262;12.210;2023-10-31T08:57:42;9.73;;;1.40;;
74867;SDS011;63419;42.262;12.210;2023-10-31T09:00:08;9.35;;;1.38;;
74867;SDS011;63419;42.262;12.210;2023-10-31T09:02:34;10.55;;;1.38;;
74867;SDS011;63419;42.262;12.210;2023-10-31T09:05:00;9.13;;;1.58;;
74867;SDS011;63419;42.262;12.210;2023-10-31T09:07:26;10.63;;;1.25;;
74867;SDS011;63419;42.262;12.210;2023-10-31T09:09:52;8.55;;;1.30;;
74867;SDS011;63419;42.262;12.210;2023-10-31T09:12:17;12.25;;;1.50;;
74867;SDS011;63419;42.262;12.210;2023-10-31T09:14:43;7.65;;;1.20;;
74867;SDS011;63419;42.262;12.210;2023-10-31T09:17:09;6.63;;;0.70;;
74867;SDS011;63419;42.262;12.210;2023-10-31T09:19:35;7.95;;;1.25;;
74867;SDS011;63419;42.262;12.210;2023-10-31T09:22:00;12.55;;;2.00;;
74867;SDS011;63419;42.262;12.210;2023-10-31T09:24:26;11.52;;;1.38;;
74867;SDS011;63419;42.262;12.210;2023-10-31T09:26:52;13.38;;;1.65;;
74867;SDS011;63419;42.262;12.210;2023-10-31T09:29:17;7.70;;;1.13;;
74867;SDS011;63419;42.262;12.210;2023-10-31T09:31:43;9.50;;;1.63;;
74867;SDS011;63419;42.262;12.210;2023-10-31T09:34:09;8.02;;;0.98;;
74867;SDS011;63419;42.262;12.210;2023-10-31T09:36:35;6.65;;;0.75;;
74867;SDS011;63419;42.262;12.210;2023-10-31T09:39:00;12.55;;;1.33;;
74867;SDS011;63419;42.262;12.210;2023-10-31T09:41:27;11.85;;;1.50;;
74867;SDS011;63419;42.262;12.210;2023-10-31T09:43:52;9.48;;;1.15;;
74867;SDS011;63419;42.262;12.210;2023-10-31T09:46:18;6.38;;;0.90;;
74867;SDS011;63419;42.262;12.210;2023-10-31T09:48:44;9.75;;;1.20;;
74867;SDS011;63419;42.262;12.210;2023-10-31T09:51:10;11.27;;;1.20;;
74867;SDS011;63419;42.262;12.210;2023-10-31T09:53:37;12.68;;;1.42;;
74867;SDS011;63419;42.262;12.210;2023-10-31T09:56:06;9.00;;;1.27;;
74867;SDS011;63419;42.262;12.210;2023-10-31T09:58:33;8.43;;;1.50;;
74867;SDS011;63419;42.262;12.210;2023-10-31T10:00:59;10.80;;;1.15;;
74867;SDS011;63419;42.262;12.210;2023-10-31T10:03:25;8.85;;;1.13;;
74867;SDS011;63419;42.262;12.210;2023-10-31T10:05:52;7.13;;;1.08;;
74867;SDS011;63419;42.262;12.210;2023-10-31T10:08:17;9.70;;;1.10;;
74867;SDS011;63419;42.262;12.210;2023-10-31T10:10:44;9.30;;;1.65;;
74867;SDS011;63419;42.262;12.210;2023-10-31T10:13:10;11.10;;;1.50;;
74867;SDS011;63419;42.262;12.210;2023-10-31T10:15:47;8.23;;;1.52;;
74867;SDS011;63419;42.262;12.210;2023-10-31T10:18:32;9.07;;;1.63;;
74867;SDS011;63419;42.262;12.210;2023-10-31T10:21:03;8.05;;;1.00;;
74867;SDS011;63419;42.262;12.210;2023-10-31T10:23:30;7.70;;;0.85;;
74867;SDS011;63419;42.262;12.210;2023-10-31T10:25:58;9.95;;;1.25;;
74867;SDS011;63419;42.262;12.210;2023-10-31T10:28:25;17.42;;;1.73;;
74867;SDS011;63419;42.262;12.210;2023-10-31T10:30:52;11.55;;;1.42;;
74867;SDS011;63419;42.262;12.210;2023-10-31T10:33:19;9.32;;;1.30;;
74867;SDS011;63419;42.262;12.210;2023-10-31T10:35:45;7.25;;;0.98;;
74867;SDS011;63419;42.262;12.210;2023-10-31T10:38:12;11.93;;;1.55;;
74867;SDS011;63419;42.262;12.210;2023-10-31T10:40:40;10.90;;;1.40;;
74867;SDS011;63419;42.262;12.210;2023-10-31T10:43:17;12.40;;;1.40;;
74867;SDS011;63419;42.262;12.210;2023-10-31T10:45:45;8.27;;;1.50;;
74867;SDS011;63419;42.262;12.210;2023-10-31T10:48:13;10.95;;;1.30;;
74867;SDS011;63419;42.262;12.210;2023-10-31T10:50:42;9.90;;;1.45;;
74867;SDS011;63419;42.262;12.210;2023-10-31T10:53:16;9.98;;;1.15;;
74867;SDS011;63419;42.262;12.210;2023-10-31T10:55:47;7.82;;;1.13;;
74867;SDS011;63419;42.262;12.210;2023-10-31T10:58:37;11.45;;;1.70;;
74867;SDS011;63419;42.262;12.210;2023-10-31T11:01:15;9.45;;;0.80;;
74867;SDS011;63419;42.262;12.210;2023-10-31T11:03:43;7.43;;;1.05;;
74867;SDS011;63419;42.262;12.210;2023-10-31T11:06:11;8.45;;;1.25;;
74867;SDS011;63419;42.262;12.210;2023-10-31T11:11:04;7.72;;;0.93;;
74867;SDS011;63419;42.262;12.210;2023-10-31T11:13:31;7.20;;;1.15;;
74867;SDS011;63419;42.262;12.210;2023-10-31T11:15:59;9.10;;;1.40;;
74867;SDS011;63419;42.262;12.210;2023-10-31T11:18:29;11.27;;;1.00;;
74867;SDS011;63419;42.262;12.210;2023-10-31T11:20:55;6.97;;;0.90;;
74867;SDS011;63419;42.262;12.210;2023-10-31T11:23:21;9.40;;;1.20;;
74867;SDS011;63419;42.262;12.210;2023-10-31T11:25:49;8.32;;;1.25;;
74867;SDS011;63419;42.262;12.210;2023-10-31T11:28:17;7.82;;;1.23;;
74867;SDS011;63419;42.262;12.210;2023-10-31T11:30:43;7.28;;;0.68;;
74867;SDS011;63419;42.262;12.210;2023-10-31T11:33:13;9.77;;;1.05;;
74867;SDS011;63419;42.262;12.210;2023-10-31T11:35:40;11.35;;;1.25;;
74867;SDS011;63419;42.262;12.210;2023-10-31T11:38:09;6.45;;;1.10;;
74867;SDS011;63419;42.262;12.210;2023-10-31T11:43:14;6.55;;;0.63;;
74867;SDS011;63419;42.262;12.210;2023-10-31T11:48:07;9.45;;;1.20;;
74867;SDS011;63419;42.262;12.210;2023-10-31T11:50:35;8.43;;;1.55;;
74867;SDS011;63419;42.262;12.210;2023-10-31T11:53:09;11.88;;;1.10;;
74867;SDS011;63419;42.262;12.210;2023-10-31T11:55:42;10.07;;;1.25;;
74867;SDS011;63419;42.262;12.210;2023-10-31T12:00:38;4.40;;;0.75;;
74867;SDS011;63419;42.262;12.210;2023-10-31T12:03:04;8.55;;;0.77;;
74867;SDS011;63419;42.262;12.210;2023-10-31T12:05:30;9.48;;;1.10;;
74867;SDS011;63419;42.262;12.210;2023-10-31T12:07:56;9.55;;;1.25;;
74867;SDS011;63419;42.262;12.210;2023-10-31T12:10:25;8.02;;;1.05;;
74867;SDS011;63419;42.262;12.210;2023-10-31T12:12:55;7.53;;;0.98;;
74867;SDS011;63419;42.262;12.210;2023-10-31T12:17:48;8.73;;;1.63;;
74867;SDS011;63419;42.262;12.210;2023-10-31T12:20:14;11.80;;;1.88;;
74867;SDS011;63419;42.262;12.210;2023-10-31T12:22:41;9.18;;;1.08;;
74867;SDS011;63419;42.262;12.210;2023-10-31T12:25:08;8.43;;;1.10;;
74867;SDS011;63419;42.262;12.210;2023-10-31T12:27:45;7.90;;;1.20;;
74867;SDS011;63419;42.262;12.210;2023-10-31T12:30:14;10.48;;;1.45;;
74867;SDS011;63419;42.262;12.210;2023-10-31T12:32:42;7.90;;;0.73;;
74867;SDS011;63419;42.262;12.210;2023-10-31T12:35:10;12.65;;;1.52;;
74867;SDS011;63419;42.262;12.210;2023-10-31T12:37:44;10.07;;;1.30;;
74867;SDS011;63419;42.262;12.210;2023-10-31T12:40:14;2.83;;;0.40;;
74867;SDS011;63419;42.262;12.210;2023-10-31T12:45:13;11.20;;;1.75;;
74867;SDS011;63419;42.262;12.210;2023-10-31T12:47:40;8.40;;;0.80;;
74867;SDS011;63419;42.262;12.210;2023-10-31T12:52:50;6.67;;;0.80;;
74867;SDS011;63419;42.262;12.210;2023-10-31T12:55:18;6.10;;;1.02;;
74867;SDS011;63419;42.262;12.210;2023-10-31T12:57:45;11.18;;;1.50;;
74867;SDS011;63419;42.262;12.210;2023-10-31T13:00:11;6.88;;;0.47;;
74867;SDS011;63419;42.262;12.210;2023-10-31T13:02:41;4.75;;;0.88;;
74867;SDS011;63419;42.262;12.210;2023-10-31T13:05:11;3.33;;;0.80;;
74867;SDS011;63419;42.262;12.210;2023-10-31T13:07:37;7.20;;;0.93;;
74867;SDS011;63419;42.262;12.210;2023-10-31T13:10:04;6.15;;;0.73;;
74867;SDS011;63419;42.262;12.210;2023-10-31T13:12:31;5.68;;;0.60;;
74867;SDS011;63419;42.262;12.210;2023-10-31T13:14:58;7.78;;;0.88;;
74867;SDS011;63419;42.262;12.210;2023-10-31T13:17:23;2.00;;;0.57;;
74867;SDS011;63419;42.262;12.210;2023-10-31T13:19:49;4.80;;;0.80;;
74867;SDS011;63419;42.262;12.210;2023-10-31T13:22:15;4.20;;;0.90;;
74867;SDS011;63419;42.262;12.210;2023-10-31T13:24:41;9.23;;;1.00;;
74867;SDS011;63419;42.262;12.210;2023-10-31T13:27:07;7.75;;;0.90;;
74867;SDS011;63419;42.262;12.210;2023-10-31T13:29:33;8.57;;;0.82;;
74867;SDS011;63419;42.262;12.210;2023-10-31T13:31:59;5.70;;;0.73;;
74867;SDS011;63419;42.262;12.210;2023-10-31T13:34:25;6.25;;;0.68;;
74867;SDS011;63419;42.262;12.210;2023-10-31T13:36:50;7.07;;;0.90;;
74867;SDS011;63419;42.262;12.210;2023-10-31T13:41:44;3.70;;;0.65;;
74867;SDS011;63419;42.262;12.210;2023-10-31T13:44:11;11.05;;;1.52;;
74867;SDS011;63419;42.262;12.210;2023-10-31T13:46:37;5.05;;;0.57;;
74867;SDS011;63419;42.262;12.210;2023-10-31T13:49:03;7.80;;;0.77;;
74867;SDS011;63419;42.262;12.210;2023-10-31T13:51:28;3.17;;;0.43;;
74867;SDS011;63419;42.262;12.210;2023-10-31T13:53:54;8.48;;;0.65;;
74867;SDS011;63419;42.262;12.210;2023-10-31T13:56:21;6.53;;;1.23;;
74867;SDS011;63419;42.262;12.210;2023-10-31T13:58:47;3.30;;;0.73;;
74867;SDS011;63419;42.262;12.210;2023-10-31T14:01:13;7.50;;;0.88;;
74867;SDS011;63419;42.262;12.210;2023-10-31T14:03:39;9.18;;;1.13;;
74867;SDS011;63419;42.262;12.210;2023-10-31T14:06:05;3.75;;;0.75;;
74867;SDS011;63419;42.262;12.210;2023-10-31T14:08:31;1.15;;;0.25;;
74867;SDS011;63419;42.262;12.210;2023-10-31T14:10:56;8.18;;;0.95;;
74867;SDS011;63419;42.262;12.210;2023-10-31T14:13:22;6.65;;;0.88;;
74867;SDS011;63419;42.262;12.210;2023-10-31T14:15:49;4.53;;;0.52;;
74867;SDS011;63419;42.262;12.210;2023-10-31T14:18:15;6.03;;;0.63;;
74867;SDS011;63419;42.262;12.210;2023-10-31T14:20:41;10.05;;;1.08;;
74867;SDS011;63419;42.262;12.210;2023-10-31T14:23:06;10.82;;;1.27;;
74867;SDS011;63419;42.262;12.210;2023-10-31T14:25:32;7.68;;;0.70;;
74867;SDS011;63419;42.262;12.210;2023-10-31T14:27:58;8.07;;;0.70;;
74867;SDS011;63419;42.262;12.210;2023-10-31T14:30:23;7.05;;;0.70;;
74867;SDS011;63419;42.262;12.210;2023-10-31T14:35:16;3.08;;;0.40;;
74867;SDS011;63419;42.262;12.210;2023-10-31T14:37:42;7.43;;;1.17;;
74867;SDS011;63419;42.262;12.210;2023-10-31T14:40:08;8.10;;;1.10;;
74867;SDS011;63419;42.262;12.210;2023-10-31T14:42:34;8.32;;;0.80;;
74867;SDS011;63419;42.262;12.210;2023-10-31T14:45:00;5.60;;;1.02;;
74867;SDS011;63419;42.262;12.210;2023-10-31T14:47:26;5.50;;;0.65;;
74867;SDS011;63419;42.262;12.210;2023-10-31T14:49:54;7.00;;;1.17;;
74867;SDS011;63419;42.262;12.210;2023-10-31T14:52:20;8.13;;;0.90;;